Terminal Aerodrome Forecast
Issued by NWS

Home | Current Version | Previous Version | Graphics & Text | Print | Product List | Glossary On
Versions: 1 2 3 4 5 6 7 8 9 10 11 12 13 14 15 16 17 18 19 20 21 22 23 24 25 26
000
FTUS43 KGRB 202204 AAC
TAFATW
TAF AMD
KATW 202204Z 2022/2118 15011KT P6SM SCT050 BKN100
      TEMPO 2022/2101 3SM -TSRA BKN025CB
     FM210500 34005KT 4SM BR BKN015 BKN025
     FM210900 02007KT 3SM BR BKN008 BKN015
     FM211500 09007KT P6SM BKN015 BKN025=

USA.gov is the U.S. government's official web portal to all federal, state and local government web resources and services.